Silt, CO (81652)

2:51 PM MDT on August 30, 2015 (GMT -0600)
Cactus Valley, Greg and Nella | | Change Station
CLOSE
Current Station
Personal Weather Station
Location: Rifle, CO
Elevation: 5449 ft
Nearby Weather Stations

Elev 5449 ft 39.55 °N, 107.73 °W | Updated 12 minutes ago

Clear
Clear
86.3 °F
Feels Like 83 °F
N
8.0
Wind Variable Wind from WSW
Gusts 19.0 mph

Today
High -- | Low -- °F
--% Chance of Precip.
Yesterday
High -- | Low -- °F
Precip. -- in
6:36 AM 7:44 PM
Full, 98% visible
Pressure 29.88 in
Visibility 10.0 miles
Clouds Clear
Heat Index 83 °F
Dew Point 45 °F
Humidity 24%
Rainfall 0.00 in
Snow Depth Not available.
UV 10 out of 12
Pollen 9.90 out of 12
Air Quality Not available.
Flu Activity Not available.
METAR KRIL 301953Z AUTO 27007G16KT 10SM CLR 29/06 A3009 RMK AO2 SLP116 T02940056
Pressure 29.88 in
Visibility 10.0 miles
Clouds Clear
Heat Index 83 °F
Dew Point 45 °F
Humidity 24%
Rainfall 0.00 in
Snow Depth Not available.
UV 10 out of 12
Pollen 9.90 out of 12
Air Quality Not available.
Flu Activity Not available.
METAR KRIL 301953Z AUTO 27007G16KT 10SM CLR 29/06 A3009 RMK AO2 SLP116 T02940056

10-Day Weather Forecast

×

Almanac

Astronomy

Aug. 30, 2015 Rise Set
Actual Time
Civil Twilight
Nautical Twilight
Astronomical Twilight
Moon
Length of Visible Light
Length of Day
Tomorrow will be .
, % of the Moon is Illuminated

Today's Extremes

State Highs State Lows

Community

WunderPhotos

Upload Photos

1,851,057 photos uploaded!

WunderBlogs® & News

Nearby

Air Quality

  Air Quality AQ Index Pollutant
Not available.

Snow Depth

Station Depth Elevation

Earthquake Activity

City Distance Mag. Time & Date
Minimum magnitude displayed is 2.5.

Coastal Water Temperatures

Place Temperature

Stations

Nearby Weather Stations

Station Location Temp. Windchill Dew Point Humidity Wind Precip. Elev Updated Type